createdAt,value
2023-03-28T00:00:34.893Z,1.20
2023-03-28T00:06:16.234Z,1.42
2023-03-28T00:09:01.347Z,1.10
2023-03-28T00:11:47.318Z,1.27
2023-03-28T00:14:35.434Z,1.60
2023-03-28T00:17:20.407Z,1.50
2023-03-28T00:20:09.239Z,2.05
2023-03-28T00:22:54.819Z,1.50
2023-03-28T00:25:41.546Z,1.20
2023-03-28T00:28:26.608Z,1.15
2023-03-28T00:31:12.401Z,1.30
2023-03-28T00:33:57.827Z,1.73
2023-03-28T00:36:43.468Z,1.13
2023-03-28T00:39:29.356Z,1.40
2023-03-28T00:42:14.674Z,1.80
2023-03-28T00:44:59.918Z,1.60
2023-03-28T00:47:49.372Z,2.58
2023-03-28T00:50:38.481Z,1.65
2023-03-28T00:53:26.937Z,1.60
2023-03-28T00:56:15.452Z,1.90
2023-03-28T00:59:05.637Z,2.15
2023-03-28T01:01:50.826Z,2.00
2023-03-28T01:04:46.660Z,1.92
2023-03-28T01:07:39.528Z,2.03
2023-03-28T01:10:25.153Z,1.90
2023-03-28T01:13:13.199Z,1.90
2023-03-28T01:15:59.432Z,1.70
2023-03-28T01:18:51.458Z,1.80
2023-03-28T01:22:23.102Z,1.80
2023-03-28T01:25:33.344Z,2.05
2023-03-28T01:28:38.713Z,2.30
2023-03-28T01:31:46.215Z,1.65
2023-03-28T01:34:53.093Z,1.52
2023-03-28T01:38:04.432Z,1.90
2023-03-28T01:41:04.606Z,1.77
2023-03-28T01:44:09.333Z,1.77
2023-03-28T01:47:27.296Z,1.58
2023-03-28T01:50:18.502Z,1.95
2023-03-28T01:53:16.520Z,1.80
2023-03-28T01:56:15.954Z,1.63
2023-03-28T01:59:15.550Z,1.95
2023-03-28T02:02:04.122Z,2.05
2023-03-28T02:04:51.756Z,2.65
2023-03-28T02:07:45.591Z,2.53
2023-03-28T02:10:32.434Z,2.90
2023-03-28T02:13:23.551Z,3.20
2023-03-28T02:16:11.031Z,2.80
2023-03-28T02:18:59.133Z,2.70
2023-03-28T02:21:52.157Z,3.40
2023-03-28T02:24:37.950Z,2.65
2023-03-28T02:27:23.033Z,2.83
2023-03-28T02:30:09.551Z,2.50
2023-03-28T02:33:00.433Z,2.63
2023-03-28T02:36:01.887Z,2.33
2023-03-28T02:39:05.828Z,2.25
2023-03-28T02:42:06.246Z,2.72
2023-03-28T02:48:14.055Z,2.28
2023-03-28T02:51:19.000Z,2.20
2023-03-28T02:54:25.999Z,1.67
2023-03-28T02:57:24.671Z,2.38
2023-03-28T03:00:16.539Z,2.10
2023-03-28T03:03:04.313Z,2.90
2023-03-28T03:05:49.197Z,2.53
2023-03-28T03:08:34.323Z,2.20
2023-03-28T03:11:19.790Z,2.05
2023-03-28T03:14:05.078Z,2.28
2023-03-28T03:16:51.953Z,2.17
2023-03-28T03:19:36.931Z,2.22
2023-03-28T03:22:23.957Z,2.75
2023-03-28T03:25:10.635Z,2.90
2023-03-28T03:27:57.188Z,2.95
2023-03-28T03:30:42.577Z,2.55
2023-03-28T03:33:27.650Z,2.80
2023-03-28T03:36:12.866Z,2.85
2023-03-28T03:38:58.670Z,2.55
2023-03-28T03:41:43.672Z,2.60
2023-03-28T03:44:29.054Z,2.92
2023-03-28T03:47:14.920Z,3.25
2023-03-28T03:50:00.457Z,2.83
2023-03-28T03:52:46.287Z,3.20
2023-03-28T03:55:32.381Z,2.97
2023-03-28T03:58:20.418Z,2.55
2023-03-28T04:01:06.448Z,2.40
2023-03-28T04:03:52.915Z,1.95
2023-03-28T04:06:40.488Z,3.30
2023-03-28T04:09:27.479Z,2.35
2023-03-28T04:12:12.558Z,2.90
2023-03-28T04:14:57.747Z,2.13
2023-03-28T04:17:44.046Z,2.42
2023-03-28T04:20:30.061Z,2.63
2023-03-28T04:23:20.623Z,2.30
2023-03-28T04:26:08.697Z,2.28
2023-03-28T04:28:55.347Z,2.33
2023-03-28T04:31:40.490Z,2.65
2023-03-28T04:34:29.754Z,2.22
2023-03-28T04:37:15.222Z,2.55
2023-03-28T04:40:01.870Z,2.67
2023-03-28T04:42:46.809Z,2.38
2023-03-28T04:45:31.684Z,2.40
2023-03-28T04:48:16.850Z,2.85
2023-03-28T04:51:02.179Z,2.92
2023-03-28T04:53:47.143Z,2.63
2023-03-28T04:56:31.988Z,2.92
2023-03-28T04:59:17.528Z,3.05
2023-03-28T05:02:02.823Z,3.10
2023-03-28T05:04:47.875Z,2.95
2023-03-28T05:07:32.744Z,2.85
2023-03-28T05:10:17.757Z,3.28
2023-03-28T05:13:03.377Z,2.55
2023-03-28T05:15:48.866Z,2.42
2023-03-28T05:18:33.741Z,2.90
2023-03-28T05:21:18.678Z,2.97
2023-03-28T05:24:03.890Z,4.43
2023-03-28T05:26:49.400Z,2.85
2023-03-28T05:29:34.526Z,3.10
2023-03-28T05:32:20.495Z,3.78
2023-03-28T05:35:08.289Z,2.67
2023-03-28T05:37:53.141Z,2.78
2023-03-28T05:40:38.655Z,3.42
2023-03-28T05:43:23.999Z,3.40
2023-03-28T05:46:09.150Z,3.92
2023-03-28T05:48:54.094Z,3.20
2023-03-28T05:51:39.051Z,3.88
2023-03-28T05:54:24.371Z,2.90
2023-03-28T05:57:09.113Z,3.72
2023-03-28T05:59:53.918Z,3.60
2023-03-28T06:02:40.200Z,3.75
2023-03-28T06:05:25.724Z,3.65
2023-03-28T06:08:11.647Z,3.22
2023-03-28T06:11:03.215Z,3.17
2023-03-28T06:13:48.027Z,3.05
2023-03-28T06:16:33.292Z,2.95
2023-03-28T06:19:19.020Z,3.20
2023-03-28T06:22:04.133Z,2.85
2023-03-28T06:24:49.365Z,3.30
2023-03-28T06:27:34.612Z,2.50
2023-03-28T06:30:20.060Z,3.30
2023-03-28T06:33:04.742Z,3.88
2023-03-28T06:35:50.040Z,3.65
2023-03-28T06:38:35.168Z,4.78
2023-03-28T06:41:20.742Z,3.25
2023-03-28T06:44:09.170Z,3.20
2023-03-28T06:46:54.115Z,3.72
2023-03-28T06:49:39.388Z,3.38
2023-03-28T06:52:24.355Z,2.92
2023-03-28T06:55:10.261Z,2.88
2023-03-28T06:57:55.246Z,2.30
2023-03-28T07:00:40.625Z,3.03
2023-03-28T07:03:26.684Z,3.47
2023-03-28T07:06:12.407Z,4.60
2023-03-28T07:08:58.374Z,2.47
2023-03-28T07:11:43.312Z,2.70
2023-03-28T07:14:28.073Z,3.33
2023-03-28T07:17:13.572Z,2.88
2023-03-28T07:19:58.594Z,2.75
2023-03-28T07:22:43.438Z,3.42
2023-03-28T07:25:28.236Z,2.60
2023-03-28T07:28:13.529Z,2.88
2023-03-28T07:31:02.196Z,3.10
2023-03-28T07:33:51.159Z,2.53
2023-03-28T07:36:35.910Z,2.30
2023-03-28T07:39:21.236Z,2.80
2023-03-28T07:42:14.089Z,2.70
2023-03-28T07:44:58.917Z,2.95
2023-03-28T07:47:44.248Z,3.20
2023-03-28T07:50:29.057Z,2.53
2023-03-28T07:53:13.831Z,3.13
2023-03-28T07:55:58.642Z,2.85
2023-03-28T07:58:43.526Z,3.05
2023-03-28T08:01:32.077Z,2.97
2023-03-28T08:04:17.616Z,2.40
2023-03-28T08:07:03.567Z,2.92
2023-03-28T08:09:50.843Z,3.10
2023-03-28T08:12:37.606Z,3.20
2023-03-28T08:15:22.823Z,2.58
2023-03-28T08:18:08.208Z,3.10
2023-03-28T08:21:01.595Z,3.15
2023-03-28T08:23:47.420Z,2.33
2023-03-28T08:26:32.301Z,2.50
2023-03-28T08:29:17.511Z,2.40
2023-03-28T08:32:03.930Z,2.78
2023-03-28T08:34:51.072Z,2.40
2023-03-28T08:37:37.102Z,3.17
2023-03-28T08:40:27.052Z,2.33
2023-03-28T08:43:38.905Z,2.78
2023-03-28T08:46:27.505Z,3.40
2023-03-28T08:49:18.249Z,2.70
2023-03-28T08:52:05.396Z,2.33
2023-03-28T08:55:02.194Z,2.40
2023-03-28T08:57:50.571Z,2.10
2023-03-28T09:00:37.989Z,2.30
2023-03-28T09:03:25.165Z,2.13
2023-03-28T09:06:24.172Z,2.08
2023-03-28T09:09:32.259Z,1.80
2023-03-28T09:12:40.950Z,2.05
2023-03-28T09:15:55.893Z,2.13
2023-03-28T09:19:04.593Z,1.50
2023-03-28T09:22:16.397Z,3.00
2023-03-28T09:25:20.252Z,1.73
2023-03-28T09:28:32.416Z,2.30
2023-03-28T09:31:21.211Z,2.72
2023-03-28T09:34:06.990Z,2.20
2023-03-28T09:36:56.254Z,1.80
2023-03-28T09:39:49.359Z,1.83
2023-03-28T09:42:57.291Z,1.75
2023-03-28T09:45:52.246Z,3.15
2023-03-28T09:48:38.837Z,3.30
2023-03-28T09:51:24.876Z,2.65
2023-03-28T09:54:10.710Z,2.53
2023-03-28T09:57:03.702Z,1.58
2023-03-28T09:59:48.814Z,2.45
2023-03-28T10:02:34.022Z,1.70
2023-03-28T10:05:30.896Z,1.50
2023-03-28T10:08:22.313Z,1.67
2023-03-28T10:11:14.813Z,1.80
2023-03-28T10:13:59.753Z,1.40
2023-03-28T10:16:45.300Z,1.38
2023-03-28T10:19:33.938Z,1.52
2023-03-28T10:22:36.276Z,1.48
2023-03-28T10:25:36.721Z,1.65
2023-03-28T10:28:35.517Z,2.20
2023-03-28T10:31:29.385Z,1.98
2023-03-28T10:34:29.750Z,1.63
2023-03-28T10:40:29.957Z,1.17
2023-03-28T10:43:16.160Z,1.92
2023-03-28T10:46:03.882Z,1.80
2023-03-28T10:48:53.907Z,1.48
2023-03-28T10:51:42.623Z,2.00
2023-03-28T10:55:02.094Z,1.73
2023-03-28T10:58:07.572Z,1.70
2023-03-28T11:01:21.705Z,2.38
2023-03-28T11:04:39.864Z,1.85
2023-03-28T11:07:45.351Z,1.60
2023-03-28T11:10:39.640Z,1.55
2023-03-28T11:13:48.609Z,2.05
2023-03-28T11:16:52.751Z,1.50
2023-03-28T11:20:00.233Z,1.77
2023-03-28T11:22:58.899Z,2.15
2023-03-28T11:26:04.876Z,1.60
2023-03-28T11:29:04.959Z,1.70
2023-03-28T11:32:28.116Z,1.60
2023-03-28T11:35:31.190Z,1.48
2023-03-28T11:38:22.502Z,1.73
2023-03-28T11:41:13.914Z,1.80
2023-03-28T11:44:18.276Z,1.70
2023-03-28T11:47:06.388Z,1.92
2023-03-28T11:49:59.756Z,1.45
2023-03-28T11:52:51.054Z,1.70
2023-03-28T11:55:41.418Z,1.83
2023-03-28T11:58:29.697Z,1.80
2023-03-28T12:01:19.266Z,1.92
2023-03-28T12:04:45.474Z,1.63
2023-03-28T12:07:56.884Z,1.63
2023-03-28T12:10:45.213Z,2.05
2023-03-28T12:13:45.285Z,1.60
2023-03-28T12:16:42.209Z,1.83
2023-03-28T12:19:41.303Z,1.40
2023-03-28T12:22:50.674Z,2.17
2023-03-28T12:25:51.400Z,1.83
2023-03-28T12:28:43.544Z,2.35
2023-03-28T12:31:38.649Z,2.35
2023-03-28T12:34:32.228Z,2.22
2023-03-28T12:37:42.047Z,1.60
2023-03-28T12:40:52.782Z,2.08
2023-03-28T12:44:11.522Z,1.92
2023-03-28T12:47:08.933Z,1.60
2023-03-28T12:50:02.831Z,2.03
2023-03-28T12:52:48.120Z,1.90
2023-03-28T12:55:46.407Z,1.70
2023-03-28T12:58:37.177Z,2.00
2023-03-28T13:01:28.335Z,1.63
2023-03-28T13:04:22.224Z,1.88
2023-03-28T13:07:18.466Z,2.50
2023-03-28T13:10:22.104Z,1.77
2023-03-28T13:13:20.166Z,1.83
2023-03-28T13:16:14.127Z,1.80
2023-03-28T13:19:08.635Z,1.90
2023-03-28T13:21:58.147Z,2.03
2023-03-28T13:24:43.042Z,1.77
2023-03-28T13:27:33.494Z,1.60
2023-03-28T13:30:24.427Z,2.25
2023-03-28T13:33:27.879Z,1.85
2023-03-28T13:36:18.760Z,2.22
2023-03-28T13:39:20.009Z,2.15
2023-03-28T13:42:25.765Z,2.10
2023-03-28T13:45:23.170Z,1.70
2023-03-28T13:48:13.530Z,2.08
2023-03-28T13:51:04.917Z,1.90
2023-03-28T13:53:51.547Z,2.42
2023-03-28T13:56:40.286Z,2.08
2023-03-28T13:59:31.825Z,2.58
2023-03-28T14:02:20.503Z,1.42
2023-03-28T14:05:14.712Z,1.60
2023-03-28T14:08:21.684Z,2.47
2023-03-28T14:11:07.546Z,1.83
2023-03-28T14:14:02.126Z,2.60
2023-03-28T14:16:47.279Z,1.90
2023-03-28T14:19:42.919Z,1.80
2023-03-28T14:22:30.347Z,1.98
2023-03-28T14:25:16.468Z,2.10
2023-03-28T14:28:09.334Z,1.83
2023-03-28T14:30:54.423Z,1.85
2023-03-28T14:33:39.909Z,2.40
2023-03-28T14:36:25.678Z,2.10
2023-03-28T14:39:18.316Z,1.80
2023-03-28T14:42:06.444Z,2.25
2023-03-28T14:44:54.187Z,2.10
2023-03-28T14:47:41.385Z,1.80
2023-03-28T14:50:32.906Z,1.95
2023-03-28T14:53:22.191Z,1.73
2023-03-28T14:56:11.102Z,2.05
2023-03-28T14:59:01.487Z,3.15
2023-03-28T15:01:48.863Z,1.73
2023-03-28T15:07:38.313Z,1.67
2023-03-28T15:10:26.023Z,1.80
2023-03-28T15:13:33.222Z,1.88
2023-03-28T15:16:23.561Z,1.70
2023-03-28T15:19:18.711Z,1.75
2023-03-28T15:22:09.609Z,1.55
2023-03-28T15:24:57.309Z,1.70
2023-03-28T15:27:49.029Z,1.70
2023-03-28T15:30:36.320Z,1.83
2023-03-28T15:33:23.083Z,1.52
2023-03-28T15:36:15.397Z,1.70
2023-03-28T15:39:10.340Z,1.75
2023-03-28T15:42:20.781Z,2.30
2023-03-28T15:45:16.529Z,1.67
2023-03-28T15:48:01.994Z,1.75
2023-03-28T15:50:53.897Z,1.77
2023-03-28T15:53:41.077Z,1.90
2023-03-28T15:56:32.469Z,1.83
2023-03-28T15:59:31.220Z,2.05
2023-03-28T16:02:22.870Z,2.15
2023-03-28T16:05:15.144Z,1.70
2023-03-28T16:08:00.381Z,2.03
2023-03-28T16:10:46.523Z,1.70
2023-03-28T16:13:31.619Z,1.90
2023-03-28T16:16:23.713Z,1.70
2023-03-28T16:19:17.140Z,1.90
2023-03-28T16:22:04.008Z,1.80
2023-03-28T16:24:50.089Z,1.90
2023-03-28T16:27:37.615Z,1.77
2023-03-28T16:30:28.539Z,2.00
2023-03-28T16:33:14.191Z,1.80
2023-03-28T16:36:00.510Z,2.03
2023-03-28T16:38:46.342Z,1.88
2023-03-28T16:41:32.187Z,1.90
2023-03-28T16:44:17.551Z,1.77
2023-03-28T16:47:04.205Z,1.70
2023-03-28T16:49:49.142Z,2.00
2023-03-28T16:52:39.483Z,1.90
2023-03-28T16:55:25.511Z,2.25
2023-03-28T16:58:11.444Z,1.70
2023-03-28T17:00:56.851Z,1.60
2023-03-28T17:03:42.241Z,1.85
2023-03-28T17:06:27.361Z,1.67
2023-03-28T17:09:16.219Z,1.80
2023-03-28T17:12:02.364Z,1.70
2023-03-28T17:14:49.508Z,2.53
2023-03-28T17:17:34.372Z,1.60
2023-03-28T17:20:21.077Z,1.50
2023-03-28T17:23:06.889Z,1.80
2023-03-28T17:25:54.778Z,1.80
2023-03-28T17:28:44.202Z,1.98
2023-03-28T17:31:29.107Z,1.70
2023-03-28T17:34:14.465Z,2.00
2023-03-28T17:37:00.568Z,1.80
2023-03-28T17:39:46.532Z,1.48
2023-03-28T17:42:31.630Z,1.90
2023-03-28T17:45:16.869Z,1.90
2023-03-28T17:48:04.462Z,2.20
2023-03-28T17:50:54.259Z,2.00
2023-03-28T17:53:40.930Z,1.60
2023-03-28T17:56:28.131Z,1.95
2023-03-28T17:59:13.589Z,2.05
2023-03-28T18:01:58.943Z,2.00
2023-03-28T18:04:43.669Z,2.22
2023-03-28T18:07:28.912Z,2.70
2023-03-28T18:10:13.720Z,2.20
2023-03-28T18:13:00.935Z,2.22
2023-03-28T18:15:46.046Z,2.20
2023-03-28T18:18:33.892Z,1.77
2023-03-28T18:21:21.737Z,1.85
2023-03-28T18:24:07.866Z,2.22
2023-03-28T18:26:53.800Z,1.90
2023-03-28T18:29:39.136Z,2.00
2023-03-28T18:32:25.134Z,2.00
2023-03-28T18:35:10.351Z,2.10
2023-03-28T18:37:57.196Z,1.95
2023-03-28T18:40:47.761Z,2.17
2023-03-28T18:43:37.954Z,2.20
2023-03-28T18:46:26.475Z,2.13
2023-03-28T18:49:14.210Z,1.88
2023-03-28T18:52:04.813Z,2.05
2023-03-28T18:54:50.972Z,1.67
2023-03-28T18:57:37.185Z,2.17
2023-03-28T19:00:26.256Z,1.90
2023-03-28T19:03:17.334Z,1.92
2023-03-28T19:06:08.058Z,2.17
2023-03-28T19:08:54.164Z,2.03
2023-03-28T19:11:41.249Z,1.70
2023-03-28T19:14:26.964Z,1.92
2023-03-28T19:17:15.002Z,2.25
2023-03-28T19:20:02.442Z,1.90
2023-03-28T19:22:49.106Z,1.80
2023-03-28T19:25:34.468Z,1.90
2023-03-28T19:28:20.748Z,1.80
2023-03-28T19:31:11.471Z,1.88
2023-03-28T19:33:58.800Z,1.77
2023-03-28T19:36:44.349Z,1.80
2023-03-28T19:39:30.452Z,1.70
2023-03-28T19:42:18.674Z,1.80
2023-03-28T19:45:04.662Z,1.80
2023-03-28T19:47:52.558Z,1.85
2023-03-28T19:50:39.164Z,2.13
2023-03-28T19:53:24.419Z,2.20
2023-03-28T19:56:11.781Z,1.77
2023-03-28T19:58:59.383Z,1.80
2023-03-28T20:01:45.101Z,2.00
2023-03-28T20:04:30.728Z,1.90
2023-03-28T20:07:20.569Z,1.63
2023-03-28T20:10:08.180Z,1.88
2023-03-28T20:12:56.930Z,2.35
2023-03-28T20:15:44.101Z,1.95
2023-03-28T20:18:29.497Z,2.00
2023-03-28T20:21:15.956Z,2.10
2023-03-28T20:24:02.118Z,2.08
2023-03-28T20:26:51.228Z,2.22
2023-03-28T20:29:36.337Z,2.20
2023-03-28T20:32:23.157Z,2.17
2023-03-28T20:35:10.319Z,2.28
2023-03-28T20:37:57.834Z,2.28
2023-03-28T20:40:45.188Z,2.63
2023-03-28T20:43:30.109Z,2.10
2023-03-28T20:46:19.603Z,2.00
2023-03-28T20:49:06.416Z,2.35
2023-03-28T20:51:52.186Z,1.75
2023-03-28T20:54:41.123Z,2.08
2023-03-28T20:57:26.944Z,1.98
2023-03-28T21:00:15.028Z,2.17
2023-03-28T21:03:00.328Z,2.35
2023-03-28T21:05:46.081Z,2.17
2023-03-28T21:08:33.064Z,2.25
2023-03-28T21:11:22.148Z,2.08
2023-03-28T21:14:10.357Z,2.70
2023-03-28T21:16:58.336Z,2.15
2023-03-28T21:19:43.318Z,2.05
2023-03-28T21:22:28.574Z,2.15
2023-03-28T21:25:14.037Z,1.90
2023-03-28T21:27:59.776Z,2.15
2023-03-28T21:30:45.116Z,2.42
2023-03-28T21:33:30.590Z,3.03
2023-03-28T21:36:17.399Z,1.73
2023-03-28T21:39:02.491Z,2.45
2023-03-28T21:41:49.627Z,1.80
2023-03-28T21:44:34.872Z,2.20
2023-03-28T21:47:19.653Z,2.50
2023-03-28T21:50:05.868Z,1.95
2023-03-28T21:52:51.045Z,1.95
2023-03-28T21:55:36.299Z,2.22
2023-03-28T21:58:24.659Z,2.08
2023-03-28T22:01:14.072Z,1.90
2023-03-28T22:03:59.177Z,1.92
2023-03-28T22:06:44.435Z,1.83
2023-03-28T22:09:29.570Z,2.20
2023-03-28T22:12:15.115Z,2.60
2023-03-28T22:15:00.444Z,2.47
2023-03-28T22:17:46.872Z,2.22
2023-03-28T22:20:31.973Z,2.20
2023-03-28T22:23:22.806Z,2.25
2023-03-28T22:26:09.063Z,2.58
2023-03-28T22:28:55.847Z,2.22
2023-03-28T22:31:43.663Z,2.17
2023-03-28T22:34:31.153Z,2.03
2023-03-28T22:37:16.915Z,2.65
2023-03-28T22:40:02.203Z,2.35
2023-03-28T22:42:46.932Z,2.42
2023-03-28T22:45:31.908Z,2.15
2023-03-28T22:48:16.996Z,2.38
2023-03-28T22:51:02.397Z,2.10
2023-03-28T22:53:48.045Z,2.38
2023-03-28T22:56:33.525Z,2.20
2023-03-28T22:59:19.056Z,2.00
2023-03-28T23:02:04.249Z,2.03
2023-03-28T23:04:50.604Z,2.42
2023-03-28T23:07:37.016Z,2.10
2023-03-28T23:10:21.725Z,2.25
2023-03-28T23:13:08.324Z,1.90
2023-03-28T23:15:55.222Z,2.42
2023-03-28T23:18:40.213Z,2.00
2023-03-28T23:21:25.572Z,2.03
2023-03-28T23:24:11.639Z,2.10
2023-03-28T23:26:56.711Z,2.17
2023-03-28T23:29:41.939Z,2.00
2023-03-28T23:32:27.129Z,1.88
2023-03-28T23:35:12.156Z,2.28
2023-03-28T23:37:57.384Z,2.55
2023-03-28T23:40:43.135Z,2.00
2023-03-28T23:43:27.886Z,1.63
2023-03-28T23:46:12.961Z,1.88
2023-03-28T23:48:57.739Z,1.75
2023-03-28T23:51:43.036Z,2.30
2023-03-28T23:54:29.828Z,1.90
2023-03-28T23:57:14.720Z,2.65
